Deerfield Twp, New Jersey
Current Conditions -  °F | °C
As of 8:54 PM on Wednesday 17 Dec 2014 (Local Time) from KMIV Reporting Station
Clear Clear  
Wind Chill: 33°   Ceiling: Unl
Heat Index: 40°   Visibility: 10mi
Dew Point: 27°   Wind: 13mph
Humidity: 60%   Direction: 300°WNW
Pressure: 29.98"   Gusts: NA
Location:  39.4433°N, 75.2554°W
Report Text: KMIV 180154Z AUTO 30011KT 10SM CLR 04/M03 A2998 RMK AO2 SLP153 T00441028
Loading
Personal Weather Stations






























Interactive Weather Map New forecast layout! Learn more

10-Day Weather Forecast

Advertisements
Track Severe Weather on mobile